Overview Statistics Trail Chart Weather Telemetry Raw packets
 

This is the latest recevied weather packets stored in our database for station/object OK1TBM-13. If no packets are shown the sender has not sent any weather packets the latest 10 day(s).

<< 12 13 14 15 16 17 18 >>
Time Temp. Humidity Pressure Rain* Wind** Luminosity Snow
1788565200 19.44° C 72% 1011.5 hPa 0 mm - 0 W/m² -
1788564900 19.44° C 73% 1011.5 hPa 0 mm - 0 W/m² -
1788564601 19.44° C 74% 1011.5 hPa 0 mm - 0 W/m² -
1788564301 19.44° C 75% 1011.2 hPa 0 mm - 0 W/m² -
1788563701 19.44° C 79% 1010.8 hPa 0 mm - 0 W/m² -
1788563400 20° C 79% 1010.8 hPa 0 mm - 0 W/m² -
1788563106 19.44° C 79% 1010.8 hPa 0 mm - 0 W/m² -
1788562800 19.44° C 81% 1009.8 hPa 0 mm - 0 W/m² -
1788562501 18.89° C 83% 1009.8 hPa 0 mm - 0 W/m² -
1788562202 18.33° C 86% 1009.5 hPa 0 mm - 0 W/m² -
1788561901 18.89° C 84% 1009.5 hPa 0 mm - 0 W/m² -
1788561601 18.89° C 84% 1009.5 hPa 0 mm - 0 W/m² -
1788561301 18.89° C 82% 1009.5 hPa 0 mm - 0 W/m² -
1788561001 18.89° C 82% 1009.5 hPa 0 mm - 0 W/m² -
1788560701 18.89° C 82% 1009.8 hPa 0 mm - 0 W/m² -
1788560401 18.89° C 82% 1009.8 hPa 0 mm - 0 W/m² -
1788560101 18.89° C 81% 1009.5 hPa 0 mm - 0 W/m² -
1788559801 19.44° C 80% 1009.5 hPa 0 mm - 0 W/m² -
1788559502 19.44° C 80% 1009.5 hPa 0 mm - 0 W/m² -
1788559201 19.44° C 78% 1009.5 hPa 0 mm - 0 W/m² -
1788558901 20° C 74% 1009.5 hPa 0 mm - 0 W/m² -
1788558601 19.44° C 78% 1009.1 hPa 0 mm - 0 W/m² -
1788558301 20° C 77% 1009.1 hPa 0 mm - 0 W/m² -
1788558002 20° C 77% 1009.1 hPa 0 mm - 0 W/m² -
1788557705 20° C 76% 1009.1 hPa 0 mm - 0 W/m² -

* Rain latest hour (hover to see other rain measurements)
** Current wind speed in m/s (hover to see current wind gust speed)